createdAt,value
2018-04-19T00:00:02.027Z,9.10
2018-04-19T00:02:30.135Z,9.10
2018-04-19T00:04:58.228Z,9.10
2018-04-19T00:07:26.927Z,9.10
2018-04-19T00:09:55.011Z,9.00
2018-04-19T00:12:24.839Z,9.00
2018-04-19T00:14:52.950Z,8.90
2018-04-19T00:17:21.119Z,8.90
2018-04-19T00:19:49.244Z,8.90
2018-04-19T00:22:17.336Z,8.90
2018-04-19T00:24:45.486Z,8.80
2018-04-19T00:27:14.089Z,8.80
2018-04-19T00:29:42.195Z,8.80
2018-04-19T00:32:14.334Z,8.70
2018-04-19T00:34:42.507Z,8.70
2018-04-19T00:37:10.627Z,8.70
2018-04-19T00:39:38.729Z,8.70
2018-04-19T00:42:06.814Z,8.60
2018-04-19T00:44:34.926Z,8.60
2018-04-19T00:47:05.040Z,8.60
2018-04-19T00:49:33.874Z,8.50
2018-04-19T00:52:06.348Z,8.50
2018-04-19T00:54:34.554Z,8.40
2018-04-19T00:57:02.786Z,8.40
2018-04-19T00:59:30.887Z,8.30
2018-04-19T01:01:59.002Z,8.30
2018-04-19T01:04:27.113Z,8.30
2018-04-19T01:06:55.198Z,8.20
2018-04-19T01:09:23.771Z,8.20
2018-04-19T01:11:51.917Z,8.20
2018-04-19T01:14:20.800Z,8.10
2018-04-19T01:16:48.921Z,8.10
2018-04-19T01:19:17.012Z,8.00
2018-04-19T01:21:46.302Z,8.00
2018-04-19T01:24:16.681Z,7.90
2018-04-19T01:26:44.788Z,7.90
2018-04-19T01:29:12.934Z,7.90
2018-04-19T01:31:42.304Z,7.80
2018-04-19T01:34:11.169Z,7.80
2018-04-19T01:36:41.138Z,7.70
2018-04-19T01:39:09.265Z,7.80
2018-04-19T01:41:37.372Z,7.70
2018-04-19T01:44:05.483Z,7.70
2018-04-19T01:46:33.600Z,7.70
2018-04-19T01:49:02.467Z,7.60
2018-04-19T01:51:30.631Z,7.60
2018-04-19T01:53:58.719Z,7.50
2018-04-19T01:56:26.815Z,7.50
2018-04-19T01:58:54.912Z,7.50
2018-04-19T02:01:23.024Z,7.50
2018-04-19T02:03:51.127Z,7.40
2018-04-19T02:06:20.918Z,7.40
2018-04-19T02:08:49.046Z,7.40
2018-04-19T02:11:17.152Z,7.40
2018-04-19T02:13:45.250Z,7.30
2018-04-19T02:16:14.213Z,7.30
2018-04-19T02:18:47.508Z,7.30
2018-04-19T02:21:16.406Z,7.30
2018-04-19T02:23:44.522Z,7.20
2018-04-19T02:26:12.634Z,7.20
2018-04-19T02:28:40.737Z,7.20
2018-04-19T02:31:09.650Z,7.20
2018-04-19T02:33:38.597Z,7.20
2018-04-19T02:36:06.721Z,7.10
2018-04-19T02:38:34.817Z,7.10
2018-04-19T02:41:02.914Z,7.10
2018-04-19T02:43:31.056Z,7.00
2018-04-19T02:45:59.167Z,7.00
2018-04-19T02:48:27.831Z,7.00
2018-04-19T02:50:55.975Z,7.00
2018-04-19T02:53:24.099Z,7.00
2018-04-19T02:55:52.179Z,6.90
2018-04-19T02:58:20.323Z,6.90
2018-04-19T03:00:48.463Z,6.90
2018-04-19T03:03:17.681Z,6.80
2018-04-19T03:05:46.630Z,6.80
2018-04-19T03:08:15.475Z,6.80
2018-04-19T03:10:43.585Z,6.70
2018-04-19T03:13:11.700Z,6.80
2018-04-19T03:15:39.809Z,6.70
2018-04-19T03:18:07.926Z,6.70
2018-04-19T03:20:36.030Z,6.70
2018-04-19T03:23:08.659Z,6.70
2018-04-19T03:25:40.899Z,6.70
2018-04-19T03:28:09.077Z,6.70
2018-04-19T03:30:37.208Z,6.70
2018-04-19T03:33:05.337Z,6.60
2018-04-19T03:35:34.083Z,6.60
2018-04-19T03:38:02.322Z,6.50
2018-04-19T03:40:30.540Z,6.50
2018-04-19T03:42:58.921Z,6.50
2018-04-19T03:45:27.070Z,6.50
2018-04-19T03:47:55.257Z,6.40
2018-04-19T03:50:23.410Z,6.40
2018-04-19T03:52:51.510Z,6.40
2018-04-19T03:55:20.428Z,6.40
2018-04-19T03:57:48.534Z,6.40
2018-04-19T04:00:16.641Z,6.30
2018-04-19T04:02:44.742Z,6.30
2018-04-19T04:05:12.943Z,6.30
2018-04-19T04:07:41.063Z,6.20
2018-04-19T04:10:09.159Z,6.20
2018-04-19T04:12:37.292Z,6.20
2018-04-19T04:15:05.392Z,6.20
2018-04-19T04:17:51.269Z,6.10
2018-04-19T04:20:37.991Z,6.10
2018-04-19T04:23:40.485Z,6.10
2018-04-19T04:26:08.870Z,6.00
2018-04-19T04:28:36.955Z,6.00
2018-04-19T04:31:05.043Z,5.90
2018-04-19T04:33:33.162Z,5.90
2018-04-19T04:36:01.266Z,5.90
2018-04-19T04:38:29.504Z,5.90
2018-04-19T04:40:57.723Z,5.90
2018-04-19T04:43:27.309Z,5.90
2018-04-19T04:45:55.431Z,5.90
2018-04-19T04:48:23.529Z,5.90
2018-04-19T04:50:52.415Z,6.00
2018-04-19T04:53:20.572Z,6.00
2018-04-19T04:55:48.742Z,6.00
2018-04-19T04:58:16.915Z,6.00
2018-04-19T05:00:45.010Z,6.10
2018-04-19T05:03:13.169Z,6.10
2018-04-19T05:05:41.329Z,6.20
2018-04-19T05:08:10.227Z,6.30
2018-04-19T05:10:38.321Z,6.30
2018-04-19T05:13:06.473Z,6.30
2018-04-19T05:15:34.570Z,6.40
2018-04-19T05:18:02.671Z,6.40
2018-04-19T05:20:30.807Z,6.50
2018-04-19T05:22:58.934Z,6.60
2018-04-19T05:25:27.142Z,6.70
2018-04-19T05:27:55.537Z,6.70
2018-04-19T05:30:23.739Z,6.80
2018-04-19T05:32:51.848Z,6.80
2018-04-19T05:35:19.975Z,6.90
2018-04-19T05:37:48.090Z,7.00
2018-04-19T05:40:16.289Z,7.00
2018-04-19T05:42:45.233Z,7.10
2018-04-19T05:45:13.340Z,7.20
2018-04-19T05:47:41.433Z,7.20
2018-04-19T05:50:09.593Z,7.30
2018-04-19T05:52:37.727Z,7.40
2018-04-19T05:55:07.206Z,7.60
2018-04-19T05:57:35.551Z,7.50
2018-04-19T06:00:03.688Z,7.70
2018-04-19T06:02:31.804Z,7.70
2018-04-19T06:05:00.045Z,7.90
2018-04-19T06:07:28.199Z,7.90
2018-04-19T06:09:56.315Z,8.00
2018-04-19T06:12:24.431Z,8.20
2018-04-19T06:14:53.131Z,8.30
2018-04-19T06:17:21.378Z,8.40
2018-04-19T06:19:49.551Z,8.50
2018-04-19T06:22:17.803Z,8.70
2018-04-19T06:24:46.038Z,8.80
2018-04-19T06:27:14.225Z,9.00
2018-04-19T06:29:42.329Z,9.20
2018-04-19T06:32:10.468Z,9.40
2018-04-19T06:34:38.590Z,9.70
2018-04-19T06:37:06.706Z,9.90
2018-04-19T06:39:35.593Z,10.40
2018-04-19T06:42:03.712Z,10.40
2018-04-19T06:44:31.878Z,10.70
2018-04-19T06:47:00.565Z,10.90
2018-04-19T06:49:28.669Z,11.10
2018-04-19T06:51:56.757Z,11.30
2018-04-19T06:54:24.881Z,11.50
2018-04-19T06:56:52.991Z,11.70
2018-04-19T06:59:21.090Z,11.90
2018-04-19T07:01:49.196Z,12.10
2018-04-19T07:04:17.289Z,12.30
2018-04-19T07:06:45.392Z,12.50
2018-04-19T07:09:13.838Z,12.80
2018-04-19T07:11:41.963Z,13.00
2018-04-19T07:14:10.051Z,13.20
2018-04-19T07:16:42.345Z,13.40
2018-04-19T07:19:10.459Z,13.60
2018-04-19T07:21:38.706Z,13.80
2018-04-19T07:24:06.996Z,13.90
2018-04-19T07:26:35.135Z,14.10
2018-04-19T07:29:03.315Z,14.30
2018-04-19T07:31:31.467Z,14.50
2018-04-19T07:34:00.366Z,14.70
2018-04-19T07:36:28.477Z,14.90
2018-04-19T07:38:56.592Z,15.10
2018-04-19T07:41:24.700Z,15.30
2018-04-19T07:43:52.819Z,15.40
2018-04-19T07:46:20.917Z,15.60
2018-04-19T07:48:49.045Z,15.70
2018-04-19T07:51:17.159Z,15.80
2018-04-19T07:53:45.281Z,15.90
2018-04-19T07:56:13.398Z,16.00
2018-04-19T07:58:41.799Z,16.10
2018-04-19T08:01:09.908Z,16.20
2018-04-19T08:03:38.748Z,16.30
2018-04-19T08:06:07.060Z,16.40
2018-04-19T08:08:35.188Z,16.50
2018-04-19T08:11:03.300Z,16.60
2018-04-19T08:13:31.408Z,16.70
2018-04-19T08:15:59.502Z,16.80
2018-04-19T08:18:27.633Z,16.90
2018-04-19T08:20:55.740Z,17.00
2018-04-19T08:23:23.845Z,17.10
2018-04-19T08:25:51.953Z,17.20
2018-04-19T08:28:20.052Z,17.30
2018-04-19T08:30:48.163Z,17.50
2018-04-19T08:33:16.269Z,17.60
2018-04-19T08:35:44.967Z,17.70
2018-04-19T08:38:13.178Z,17.80
2018-04-19T08:40:41.274Z,17.90
2018-04-19T08:43:09.387Z,18.00
2018-04-19T08:45:37.497Z,18.10
2018-04-19T08:48:05.609Z,18.30
2018-04-19T08:50:37.547Z,18.30
2018-04-19T08:53:05.902Z,18.40
2018-04-19T08:55:34.021Z,18.50
2018-04-19T08:58:02.226Z,18.60
2018-04-19T09:00:30.451Z,18.70
2018-04-19T09:02:58.690Z,18.90
2018-04-19T09:05:26.796Z,19.00
2018-04-19T09:07:54.937Z,19.10
2018-04-19T09:10:23.033Z,19.20
2018-04-19T09:12:51.139Z,19.30
2018-04-19T09:15:19.312Z,19.50
2018-04-19T09:17:47.414Z,19.60
2018-04-19T09:20:15.532Z,19.70
2018-04-19T09:22:43.795Z,19.90
2018-04-19T09:25:11.993Z,20.00
2018-04-19T09:27:40.184Z,20.20
2018-04-19T09:30:08.413Z,20.30
2018-04-19T09:32:36.533Z,20.40
2018-04-19T09:35:04.654Z,20.60
2018-04-19T09:37:32.785Z,20.80
2018-04-19T09:40:00.879Z,20.90
2018-04-19T09:42:29.030Z,21.10
2018-04-19T09:44:57.130Z,21.30
2018-04-19T09:47:25.238Z,21.50
2018-04-19T09:49:53.354Z,21.70
2018-04-19T09:52:21.469Z,21.90
2018-04-19T09:54:49.631Z,22.10
2018-04-19T09:57:17.730Z,22.20
2018-04-19T09:59:45.852Z,22.50
2018-04-19T10:02:13.952Z,22.60
2018-04-19T10:04:42.072Z,22.80
2018-04-19T10:07:10.231Z,23.00
2018-04-19T10:09:38.348Z,23.20
2018-04-19T10:12:06.456Z,23.40
2018-04-19T10:14:35.430Z,23.50
2018-04-19T10:17:03.565Z,23.70
2018-04-19T10:19:31.661Z,23.90
2018-04-19T10:22:00.161Z,24.10
2018-04-19T10:24:28.254Z,24.30
2018-04-19T10:26:56.362Z,24.50
2018-04-19T10:29:24.480Z,24.80
2018-04-19T10:31:52.577Z,25.00
2018-04-19T10:34:20.759Z,25.20
2018-04-19T10:36:48.870Z,25.40
2018-04-19T10:39:17.052Z,25.70
2018-04-19T10:41:45.936Z,25.90
2018-04-19T10:44:14.050Z,26.00
2018-04-19T10:46:46.218Z,26.20
2018-04-19T10:49:14.361Z,26.30
2018-04-19T10:51:42.478Z,26.50
2018-04-19T10:54:10.627Z,26.70
2018-04-19T10:56:39.325Z,27.00
2018-04-19T10:59:07.423Z,27.40
2018-04-19T11:01:35.580Z,27.80
2018-04-19T11:04:03.703Z,28.20
2018-04-19T11:06:31.818Z,28.60
2018-04-19T11:09:00.382Z,28.90
2018-04-19T11:11:28.590Z,29.20
2018-04-19T11:13:56.822Z,29.40
2018-04-19T11:16:25.052Z,29.70
2018-04-19T11:18:53.291Z,29.90
2018-04-19T11:21:21.516Z,30.10
2018-04-19T11:23:49.692Z,30.30
2018-04-19T11:26:17.791Z,30.40
2018-04-19T11:28:46.412Z,30.70
2018-04-19T11:31:14.518Z,30.80
2018-04-19T11:33:42.664Z,30.90
2018-04-19T11:36:10.766Z,31.10
2018-04-19T11:38:38.860Z,31.20
2018-04-19T11:41:07.980Z,31.50
2018-04-19T11:43:36.078Z,31.50
2018-04-19T11:46:04.196Z,31.70
2018-04-19T11:48:32.520Z,31.80
2018-04-19T11:51:00.717Z,32.00
2018-04-19T11:53:28.865Z,32.10
2018-04-19T11:55:57.241Z,32.20
2018-04-19T11:58:25.623Z,32.30
2018-04-19T12:00:54.900Z,32.60
2018-04-19T12:03:23.878Z,32.60
2018-04-19T12:05:51.990Z,32.60
2018-04-19T12:08:20.108Z,32.70
2018-04-19T12:10:48.221Z,32.70
2018-04-19T12:13:16.311Z,32.80
2018-04-19T12:15:44.512Z,32.90
2018-04-19T12:18:12.612Z,33.00
2018-04-19T12:20:41.424Z,33.10
2018-04-19T12:23:09.607Z,33.20
2018-04-19T12:25:37.738Z,33.30
2018-04-19T12:28:06.599Z,33.60
2018-04-19T12:30:34.719Z,33.60
2018-04-19T12:33:02.831Z,33.70
2018-04-19T12:35:31.003Z,33.80
2018-04-19T12:37:59.194Z,33.80
2018-04-19T12:40:27.418Z,33.90
2018-04-19T12:42:55.648Z,34.00
2018-04-19T12:45:23.870Z,34.20
2018-04-19T12:47:52.056Z,34.50
2018-04-19T12:50:20.158Z,35.20
2018-04-19T12:52:50.682Z,36.20
2018-04-19T12:55:19.460Z,37.30
2018-04-19T12:57:47.552Z,38.40
2018-04-19T13:00:16.457Z,40.20
2018-04-19T13:02:44.562Z,40.10
2018-04-19T13:05:12.690Z,40.80
2018-04-19T13:07:40.839Z,41.40
2018-04-19T13:10:09.428Z,41.90
2018-04-19T13:12:37.580Z,42.20
2018-04-19T13:15:05.804Z,42.50
2018-04-19T13:17:34.014Z,42.70
2018-04-19T13:20:02.348Z,42.90
2018-04-19T13:22:30.546Z,43.00
2018-04-19T13:24:58.689Z,43.00
2018-04-19T13:27:26.798Z,43.10
2018-04-19T13:29:55.382Z,43.10
2018-04-19T13:32:24.872Z,42.90
2018-04-19T13:34:52.980Z,42.90
2018-04-19T13:37:21.086Z,42.90
2018-04-19T13:39:49.202Z,42.90
2018-04-19T13:42:18.605Z,42.80
2018-04-19T13:44:46.735Z,42.60
2018-04-19T13:47:14.998Z,42.40
2018-04-19T13:49:43.207Z,42.10
2018-04-19T13:52:11.341Z,41.80
2018-04-19T13:54:39.441Z,41.40
2018-04-19T13:57:07.638Z,41.00
2018-04-19T13:59:36.518Z,40.20
2018-04-19T14:02:04.656Z,40.20
2018-04-19T14:04:32.846Z,39.80
2018-04-19T14:07:00.942Z,39.50
2018-04-19T14:09:29.053Z,39.20
2018-04-19T14:11:57.172Z,38.90
2018-04-19T14:14:26.305Z,38.80
2018-04-19T14:16:55.058Z,38.60
2018-04-19T14:19:23.866Z,38.50
2018-04-19T14:21:51.971Z,38.40
2018-04-19T14:24:20.078Z,38.40
2018-04-19T14:26:48.197Z,38.50
2018-04-19T14:29:17.056Z,38.50
2018-04-19T14:31:45.188Z,38.50
2018-04-19T14:34:13.320Z,38.50
2018-04-19T14:36:41.443Z,38.50
2018-04-19T14:39:09.562Z,38.60
2018-04-19T14:41:37.673Z,38.60
2018-04-19T14:44:05.789Z,38.80
2018-04-19T14:46:37.635Z,38.90
2018-04-19T14:49:05.730Z,39.10
2018-04-19T14:51:33.892Z,39.30
2018-04-19T14:54:02.009Z,39.70
2018-04-19T14:56:30.106Z,40.20
2018-04-19T14:58:58.250Z,40.70
2018-04-19T15:01:26.321Z,41.20
2018-04-19T15:03:54.926Z,41.70
2018-04-19T15:06:23.737Z,42.10
2018-04-19T15:08:51.874Z,42.40
2018-04-19T15:11:20.018Z,42.80
2018-04-19T15:13:48.892Z,43.20
2018-04-19T15:16:17.010Z,43.20
2018-04-19T15:18:45.139Z,43.30
2018-04-19T15:34:08.591Z,43.50
2018-04-19T15:49:31.744Z,42.80
2018-04-19T15:51:59.857Z,41.90
2018-04-19T15:54:27.977Z,41.90
2018-04-19T15:56:56.102Z,42.00
2018-04-19T15:59:24.198Z,42.00
2018-04-19T16:01:52.308Z,41.90
2018-04-19T16:04:20.832Z,41.80
2018-04-19T16:06:48.955Z,41.70
2018-04-19T16:09:17.087Z,41.40
2018-04-19T16:11:52.855Z,41.10
2018-04-19T16:14:17.805Z,40.80
2018-04-19T16:16:45.907Z,40.40
2018-04-19T16:19:14.020Z,39.90
2018-04-19T16:21:42.101Z,39.20
2018-04-19T16:24:10.221Z,38.30
2018-04-19T16:26:38.341Z,37.40
2018-04-19T16:29:06.463Z,36.50
2018-04-19T16:31:34.573Z,35.70
2018-04-19T16:34:02.685Z,35.00
2018-04-19T16:36:34.682Z,34.30
2018-04-19T16:39:04.159Z,33.60
2018-04-19T16:41:32.303Z,32.90
2018-04-19T16:44:00.483Z,32.30
2018-04-19T16:46:28.759Z,31.80
2018-04-19T16:48:56.918Z,31.20
2018-04-19T16:51:25.116Z,30.70
2018-04-19T16:53:53.216Z,30.30
2018-04-19T16:56:21.315Z,29.80
2018-04-19T16:58:50.183Z,29.40
2018-04-19T17:01:18.276Z,29.10
2018-04-19T17:03:46.427Z,28.70
2018-04-19T17:06:14.677Z,28.30
2018-04-19T17:08:42.827Z,27.90
2018-04-19T17:11:11.621Z,27.50
2018-04-19T17:13:39.761Z,27.10
2018-04-19T17:16:07.889Z,26.80
2018-04-19T17:18:36.000Z,26.40
2018-04-19T17:21:04.480Z,26.10
2018-04-19T17:23:32.591Z,25.80
2018-04-19T17:26:00.705Z,25.50
2018-04-19T17:28:28.957Z,25.30
2018-04-19T17:30:57.830Z,24.80
2018-04-19T17:33:25.951Z,24.70
2018-04-19T17:35:54.123Z,24.50
2018-04-19T17:38:22.247Z,24.30
2018-04-19T17:40:50.368Z,24.10
2018-04-19T17:43:18.495Z,23.90
2018-04-19T17:45:46.588Z,23.70
2018-04-19T17:48:14.706Z,23.50
2018-04-19T17:50:42.833Z,23.30
2018-04-19T17:53:10.940Z,23.10
2018-04-19T17:55:39.883Z,23.00
2018-04-19T17:58:07.995Z,22.80
2018-04-19T18:00:36.132Z,22.60
2018-04-19T18:03:05.017Z,22.20
2018-04-19T18:05:33.141Z,22.20
2018-04-19T18:08:01.261Z,22.00
2018-04-19T18:10:29.373Z,21.80
2018-04-19T18:12:57.517Z,21.60
2018-04-19T18:15:26.372Z,21.20
2018-04-19T18:17:54.482Z,21.10
2018-04-19T18:20:23.616Z,20.70
2018-04-19T18:22:51.742Z,20.70
2018-04-19T18:25:19.829Z,20.50
2018-04-19T18:27:47.951Z,20.30
2018-04-19T18:30:16.989Z,20.10
2018-04-19T18:32:45.116Z,19.90
2018-04-19T18:35:13.222Z,19.70
2018-04-19T18:37:42.076Z,19.30
2018-04-19T18:40:10.209Z,19.30
2018-04-19T18:42:38.360Z,19.10
2018-04-19T18:45:06.485Z,19.00
2018-04-19T18:47:34.606Z,18.80
2018-04-19T18:50:03.479Z,18.40
2018-04-19T18:52:31.586Z,18.40
2018-04-19T18:54:59.716Z,18.20
2018-04-19T18:57:27.923Z,18.10
2018-04-19T18:59:56.019Z,17.90
2018-04-19T19:02:24.183Z,17.80
2018-04-19T19:04:53.079Z,17.60
2018-04-19T19:07:21.468Z,17.40
2018-04-19T19:09:49.687Z,17.30
2018-04-19T19:12:18.306Z,17.10
2018-04-19T19:14:46.499Z,17.00
2018-04-19T19:17:32.340Z,16.90
2018-04-19T19:20:12.790Z,16.70
2018-04-19T19:22:40.963Z,16.50
2018-04-19T19:25:09.079Z,16.30
2018-04-19T19:27:37.232Z,16.20
2018-04-19T19:30:05.571Z,16.00
2018-04-19T19:32:33.699Z,15.90
2018-04-19T19:35:01.814Z,15.80
2018-04-19T19:37:30.269Z,15.60
2018-04-19T19:39:58.369Z,15.50
2018-04-19T19:42:26.483Z,15.40
2018-04-19T19:44:54.949Z,15.30
2018-04-19T19:47:23.093Z,15.20
2018-04-19T19:49:52.047Z,15.10
2018-04-19T19:52:20.140Z,15.00
2018-04-19T19:54:48.258Z,14.90
2018-04-19T19:57:16.354Z,14.80
2018-04-19T19:59:44.473Z,14.70
2018-04-19T20:02:12.562Z,14.70
2018-04-19T20:04:41.335Z,14.60
2018-04-19T20:07:09.913Z,14.50
2018-04-19T20:09:38.025Z,14.50
2018-04-19T20:12:07.405Z,14.40
2018-04-19T20:14:35.599Z,14.30
2018-04-19T20:17:03.801Z,14.20
2018-04-19T20:19:31.912Z,14.20
2018-04-19T20:22:00.051Z,14.10
2018-04-19T20:24:28.642Z,14.00
2018-04-19T20:26:56.776Z,13.90
2018-04-19T20:29:24.941Z,13.90
2018-04-19T20:31:53.035Z,13.80
2018-04-19T20:34:21.167Z,13.80
2018-04-19T20:36:49.271Z,13.70
2018-04-19T20:39:18.150Z,13.60
2018-04-19T20:41:46.301Z,13.60
2018-04-19T20:44:14.449Z,13.50
2018-04-19T20:46:43.433Z,13.40
2018-04-19T20:49:11.566Z,13.40
2018-04-19T20:51:39.683Z,13.30
2018-04-19T20:54:07.818Z,13.20
2018-04-19T20:56:41.031Z,13.10
2018-04-19T20:59:09.135Z,13.10
2018-04-19T21:01:37.263Z,13.00
2018-04-19T21:04:05.454Z,12.90
2018-04-19T21:06:33.682Z,12.90
2018-04-19T21:09:02.771Z,12.80
2018-04-19T21:11:30.879Z,12.80
2018-04-19T21:13:58.988Z,12.70
2018-04-19T21:16:27.133Z,12.70
2018-04-19T21:18:55.240Z,12.60
2018-04-19T21:21:23.362Z,12.50
2018-04-19T21:23:53.019Z,12.40
2018-04-19T21:26:21.125Z,12.40
2018-04-19T21:28:50.893Z,12.30
2018-04-19T21:31:27.215Z,12.30
2018-04-19T21:33:55.350Z,12.30
2018-04-19T21:36:23.503Z,12.20
2018-04-19T21:38:51.628Z,12.20
2018-04-19T21:41:19.842Z,12.20
2018-04-19T21:43:47.975Z,12.10
2018-04-19T21:46:20.175Z,12.10
2018-04-19T21:48:48.299Z,12.00
2018-04-19T21:51:16.391Z,11.90
2018-04-19T21:53:44.503Z,11.90
2018-04-19T21:56:12.595Z,11.80
2018-04-19T21:58:40.711Z,11.70
2018-04-19T22:01:08.812Z,11.70
2018-04-19T22:03:37.029Z,11.60
2018-04-19T22:06:05.320Z,11.50
2018-04-19T22:08:33.483Z,11.50
2018-04-19T22:11:02.347Z,11.40
2018-04-19T22:13:30.455Z,11.40
2018-04-19T22:15:58.566Z,11.40
2018-04-19T22:18:26.670Z,11.30
2018-04-19T22:20:54.792Z,11.30
2018-04-19T22:23:22.975Z,11.30
2018-04-19T22:25:52.715Z,11.20
2018-04-19T22:28:20.830Z,11.20
2018-04-19T22:30:48.963Z,11.10
2018-04-19T22:33:17.086Z,11.10
2018-04-19T22:35:45.180Z,11.10
2018-04-19T22:38:14.786Z,11.00
2018-04-19T22:40:42.884Z,11.00
2018-04-19T22:43:11.002Z,10.90
2018-04-19T22:45:39.111Z,10.90
2018-04-19T22:48:07.227Z,10.90
2018-04-19T22:50:35.326Z,10.80
2018-04-19T22:53:05.167Z,10.80
2018-04-19T22:55:33.281Z,10.80
2018-04-19T22:58:01.412Z,10.70
2018-04-19T23:00:29.633Z,10.70
2018-04-19T23:02:57.834Z,10.70
2018-04-19T23:05:26.066Z,10.70
2018-04-19T23:07:54.285Z,10.60
2018-04-19T23:10:22.410Z,10.60
2018-04-19T23:12:50.529Z,10.60
2018-04-19T23:15:19.129Z,10.50
2018-04-19T23:17:47.317Z,10.50
2018-04-19T23:20:15.429Z,10.40
2018-04-19T23:22:43.553Z,10.30
2018-04-19T23:25:11.667Z,10.30
2018-04-19T23:27:39.797Z,10.20
2018-04-19T23:30:09.726Z,10.20
2018-04-19T23:32:37.837Z,10.10
2018-04-19T23:35:05.960Z,10.10
2018-04-19T23:37:34.084Z,10.10
2018-04-19T23:40:02.921Z,10.00
2018-04-19T23:42:31.012Z,10.00
2018-04-19T23:44:59.122Z,9.90
2018-04-19T23:47:27.268Z,9.90
2018-04-19T23:49:55.361Z,9.90
2018-04-19T23:52:23.447Z,9.80
2018-04-19T23:54:51.564Z,9.80
2018-04-19T23:57:19.655Z,9.80
2018-04-19T23:59:47.761Z,9.70
